sensor_id;sensor_type;location;lat;lon;timestamp;pressure;altitude;pressure_sealevel;temperature
45034;BMP280;30771;47.988;-4.186;2023-06-19T06:01:31;98125.50;;;18.83
45034;BMP280;30771;47.988;-4.186;2023-06-19T06:03:57;98132.06;;;18.94
45034;BMP280;30771;47.988;-4.186;2023-06-19T06:06:23;98120.78;;;19.05
45034;BMP280;30771;47.988;-4.186;2023-06-19T06:08:48;98111.94;;;19.22
45034;BMP280;30771;47.988;-4.186;2023-06-19T06:11:14;98123.53;;;19.43
45034;BMP280;30771;47.988;-4.186;2023-06-19T06:13:39;98114.41;;;19.52
45034;BMP280;30771;47.988;-4.186;2023-06-19T06:16:04;98114.56;;;19.56
45034;BMP280;30771;47.988;-4.186;2023-06-19T06:18:30;98112.75;;;19.68
45034;BMP280;30771;47.988;-4.186;2023-06-19T06:20:55;98119.91;;;19.85
45034;BMP280;30771;47.988;-4.186;2023-06-19T06:23:20;98095.38;;;19.92
45034;BMP280;30771;47.988;-4.186;2023-06-19T06:25:46;98091.31;;;20.15
45034;BMP280;30771;47.988;-4.186;2023-06-19T06:28:11;98079.91;;;20.26
45034;BMP280;30771;47.988;-4.186;2023-06-19T06:30:37;98074.97;;;20.37
45034;BMP280;30771;47.988;-4.186;2023-06-19T06:33:02;98081.22;;;20.41
45034;BMP280;30771;47.988;-4.186;2023-06-19T06:35:27;98083.81;;;20.49
45034;BMP280;30771;47.988;-4.186;2023-06-19T06:37:52;98086.44;;;20.58
45034;BMP280;30771;47.988;-4.186;2023-06-19T06:40:18;98074.53;;;20.67
45034;BMP280;30771;47.988;-4.186;2023-06-19T06:42:43;98075.31;;;20.68
45034;BMP280;30771;47.988;-4.186;2023-06-19T06:45:09;98089.59;;;20.72
45034;BMP280;30771;47.988;-4.186;2023-06-19T06:47:34;98103.09;;;20.75
45034;BMP280;30771;47.988;-4.186;2023-06-19T06:50:00;98113.78;;;20.75
45034;BMP280;30771;47.988;-4.186;2023-06-19T06:52:25;98122.53;;;20.84
45034;BMP280;30771;47.988;-4.186;2023-06-19T06:54:50;98121.09;;;20.87
45034;BMP280;30771;47.988;-4.186;2023-06-19T06:57:16;98120.69;;;20.97
45034;BMP280;30771;47.988;-4.186;2023-06-19T06:59:41;98090.19;;;21.10
45034;BMP280;30771;47.988;-4.186;2023-06-19T07:02:07;98067.81;;;21.26
45034;BMP280;30771;47.988;-4.186;2023-06-19T07:04:32;98063.97;;;21.39
45034;BMP280;30771;47.988;-4.186;2023-06-19T07:06:58;98042.13;;;21.49
45034;BMP280;30771;47.988;-4.186;2023-06-19T07:09:23;98025.53;;;21.56
45034;BMP280;30771;47.988;-4.186;2023-06-19T07:11:49;98024.38;;;21.69
45034;BMP280;30771;47.988;-4.186;2023-06-19T07:14:15;98018.34;;;21.72
45034;BMP280;30771;47.988;-4.186;2023-06-19T07:16:40;98020.03;;;21.77
45034;BMP280;30771;47.988;-4.186;2023-06-19T07:19:05;98011.44;;;21.83
45034;BMP280;30771;47.988;-4.186;2023-06-19T07:21:30;98018.91;;;21.90
45034;BMP280;30771;47.988;-4.186;2023-06-19T07:23:56;98010.88;;;21.90
45034;BMP280;30771;47.988;-4.186;2023-06-19T07:26:23;98020.69;;;21.98
45034;BMP280;30771;47.988;-4.186;2023-06-19T07:28:48;98005.81;;;22.00
45034;BMP280;30771;47.988;-4.186;2023-06-19T07:31:13;98010.84;;;22.02
45034;BMP280;30771;47.988;-4.186;2023-06-19T07:33:39;98002.78;;;22.02
45034;BMP280;30771;47.988;-4.186;2023-06-19T07:36:07;97981.09;;;22.07
45034;BMP280;30771;47.988;-4.186;2023-06-19T07:38:32;97963.31;;;22.14
45034;BMP280;30771;47.988;-4.186;2023-06-19T07:40:58;97946.56;;;22.17
45034;BMP280;30771;47.988;-4.186;2023-06-19T07:43:23;97914.28;;;22.14
45034;BMP280;30771;47.988;-4.186;2023-06-19T07:45:49;97884.81;;;22.14
45034;BMP280;30771;47.988;-4.186;2023-06-19T07:48:14;97868.81;;;22.17
45034;BMP280;30771;47.988;-4.186;2023-06-19T07:50:40;97861.13;;;22.16
45034;BMP280;30771;47.988;-4.186;2023-06-19T07:53:05;97858.00;;;22.14
45034;BMP280;30771;47.988;-4.186;2023-06-19T07:55:30;97845.41;;;22.14
45034;BMP280;30771;47.988;-4.186;2023-06-19T07:57:56;97831.66;;;22.16
45034;BMP280;30771;47.988;-4.186;2023-06-19T08:00:21;97816.47;;;22.20
45034;BMP280;30771;47.988;-4.186;2023-06-19T08:02:46;97782.47;;;22.24
45034;BMP280;30771;47.988;-4.186;2023-06-19T08:05:13;97748.91;;;22.30
45034;BMP280;30771;47.988;-4.186;2023-06-19T08:07:38;97728.31;;;22.34
45034;BMP280;30771;47.988;-4.186;2023-06-19T08:10:04;97695.81;;;22.35
45034;BMP280;30771;47.988;-4.186;2023-06-19T08:12:30;97686.28;;;22.38
45034;BMP280;30771;47.988;-4.186;2023-06-19T08:14:55;97675.50;;;22.34
45034;BMP280;30771;47.988;-4.186;2023-06-19T08:17:21;97677.03;;;22.35
45034;BMP280;30771;47.988;-4.186;2023-06-19T08:19:47;97671.88;;;22.27
45034;BMP280;30771;47.988;-4.186;2023-06-19T08:22:12;97657.59;;;22.23
45034;BMP280;30771;47.988;-4.186;2023-06-19T08:24:37;97641.19;;;22.24
45034;BMP280;30771;47.988;-4.186;2023-06-19T08:27:03;97623.09;;;22.21
45034;BMP280;30771;47.988;-4.186;2023-06-19T08:29:28;97634.75;;;22.29
45034;BMP280;30771;47.988;-4.186;2023-06-19T08:31:54;97629.00;;;22.27
45034;BMP280;30771;47.988;-4.186;2023-06-19T08:34:19;97622.06;;;22.26
45034;BMP280;30771;47.988;-4.186;2023-06-19T08:36:44;97616.56;;;22.38
45034;BMP280;30771;47.988;-4.186;2023-06-19T08:39:10;97616.31;;;22.43
45034;BMP280;30771;47.988;-4.186;2023-06-19T08:41:38;97611.81;;;22.47
45034;BMP280;30771;47.988;-4.186;2023-06-19T08:44:06;97608.22;;;22.58
45034;BMP280;30771;47.988;-4.186;2023-06-19T08:46:31;97577.91;;;22.77
45034;BMP280;30771;47.988;-4.186;2023-06-19T08:48:56;97548.03;;;23.01
45034;BMP280;30771;47.988;-4.186;2023-06-19T08:51:22;97492.75;;;23.19
45034;BMP280;30771;47.988;-4.186;2023-06-19T08:53:55;97468.84;;;23.36
45034;BMP280;30771;47.988;-4.186;2023-06-19T08:56:20;97452.59;;;23.52
45034;BMP280;30771;47.988;-4.186;2023-06-19T08:58:46;97435.06;;;23.65
45034;BMP280;30771;47.988;-4.186;2023-06-19T09:01:16;97389.63;;;23.82
45034;BMP280;30771;47.988;-4.186;2023-06-19T09:03:42;97386.41;;;24.03
45034;BMP280;30771;47.988;-4.186;2023-06-19T09:06:08;97403.25;;;24.00
45034;BMP280;30771;47.988;-4.186;2023-06-19T09:08:34;97395.84;;;23.90
45034;BMP280;30771;47.988;-4.186;2023-06-19T09:11:01;97396.25;;;23.92
45034;BMP280;30771;47.988;-4.186;2023-06-19T09:13:27;97399.47;;;24.05
45034;BMP280;30771;47.988;-4.186;2023-06-19T09:16:04;97405.31;;;24.10
45034;BMP280;30771;47.988;-4.186;2023-06-19T09:18:30;97387.94;;;24.04
45034;BMP280;30771;47.988;-4.186;2023-06-19T09:20:56;97396.00;;;24.04
45034;BMP280;30771;47.988;-4.186;2023-06-19T09:23:22;97406.53;;;23.86
45034;BMP280;30771;47.988;-4.186;2023-06-19T09:25:57;97412.50;;;23.69
45034;BMP280;30771;47.988;-4.186;2023-06-19T09:28:27;97402.75;;;23.54
45034;BMP280;30771;47.988;-4.186;2023-06-19T09:30:54;97389.84;;;23.37
45034;BMP280;30771;47.988;-4.186;2023-06-19T09:33:19;97382.00;;;23.25
45034;BMP280;30771;47.988;-4.186;2023-06-19T09:35:45;97394.84;;;23.09
45034;BMP280;30771;47.988;-4.186;2023-06-19T09:38:11;97424.56;;;22.97
45034;BMP280;30771;47.988;-4.186;2023-06-19T09:40:37;97437.38;;;22.85
45034;BMP280;30771;47.988;-4.186;2023-06-19T09:43:04;97464.88;;;22.78
45034;BMP280;30771;47.988;-4.186;2023-06-19T09:45:31;97483.53;;;22.71
45034;BMP280;30771;47.988;-4.186;2023-06-19T09:47:57;97512.44;;;22.59
45034;BMP280;30771;47.988;-4.186;2023-06-19T09:50:26;97511.66;;;22.58
45034;BMP280;30771;47.988;-4.186;2023-06-19T09:52:52;97537.28;;;22.56
45034;BMP280;30771;47.988;-4.186;2023-06-19T09:55:18;97543.63;;;22.48
45034;BMP280;30771;47.988;-4.186;2023-06-19T09:57:44;97577.72;;;22.47
45034;BMP280;30771;47.988;-4.186;2023-06-19T10:00:11;97600.50;;;22.57
45034;BMP280;30771;47.988;-4.186;2023-06-19T10:02:36;97607.38;;;22.54
45034;BMP280;30771;47.988;-4.186;2023-06-19T10:05:02;97636.88;;;22.54
45034;BMP280;30771;47.988;-4.186;2023-06-19T10:07:33;97639.38;;;22.47
45034;BMP280;30771;47.988;-4.186;2023-06-19T10:10:06;97646.50;;;22.40
45034;BMP280;30771;47.988;-4.186;2023-06-19T10:12:41;97623.22;;;22.44
45034;BMP280;30771;47.988;-4.186;2023-06-19T10:17:35;97544.16;;;22.76
45034;BMP280;30771;47.988;-4.186;2023-06-19T10:20:00;97514.28;;;23.00
45034;BMP280;30771;47.988;-4.186;2023-06-19T10:22:30;97472.88;;;23.23
45034;BMP280;30771;47.988;-4.186;2023-06-19T10:24:55;97445.19;;;23.45
45034;BMP280;30771;47.988;-4.186;2023-06-19T10:27:22;97427.81;;;23.65
45034;BMP280;30771;47.988;-4.186;2023-06-19T10:29:54;97406.22;;;23.92
45034;BMP280;30771;47.988;-4.186;2023-06-19T10:32:20;97386.88;;;24.12
45034;BMP280;30771;47.988;-4.186;2023-06-19T10:34:47;97379.31;;;24.28
45034;BMP280;30771;47.988;-4.186;2023-06-19T10:37:13;97381.53;;;24.63
45034;BMP280;30771;47.988;-4.186;2023-06-19T10:39:38;97420.53;;;24.83
45034;BMP280;30771;47.988;-4.186;2023-06-19T10:42:07;97448.03;;;25.13
45034;BMP280;30771;47.988;-4.186;2023-06-19T10:44:33;97472.81;;;25.43
45034;BMP280;30771;47.988;-4.186;2023-06-19T10:46:58;97501.41;;;25.65
45034;BMP280;30771;47.988;-4.186;2023-06-19T10:49:23;97556.88;;;25.66
45034;BMP280;30771;47.988;-4.186;2023-06-19T10:51:49;97650.34;;;25.58
45034;BMP280;30771;47.988;-4.186;2023-06-19T10:54:14;97697.75;;;25.63
45034;BMP280;30771;47.988;-4.186;2023-06-19T10:56:39;97754.41;;;25.73
45034;BMP280;30771;47.988;-4.186;2023-06-19T10:59:07;97823.03;;;25.79
45034;BMP280;30771;47.988;-4.186;2023-06-19T11:01:35;97860.13;;;25.93
45034;BMP280;30771;47.988;-4.186;2023-06-19T11:04:10;97912.63;;;26.02
45034;BMP280;30771;47.988;-4.186;2023-06-19T11:06:37;97941.19;;;26.10
45034;BMP280;30771;47.988;-4.186;2023-06-19T11:09:07;97981.72;;;26.17
45034;BMP280;30771;47.988;-4.186;2023-06-19T11:14:07;98078.03;;;25.84
45034;BMP280;30771;47.988;-4.186;2023-06-19T11:16:34;98060.53;;;25.71
45034;BMP280;30771;47.988;-4.186;2023-06-19T11:19:00;98046.44;;;25.55
45034;BMP280;30771;47.988;-4.186;2023-06-19T11:21:33;98050.75;;;25.59
45034;BMP280;30771;47.988;-4.186;2023-06-19T11:23:59;98017.53;;;25.52
45034;BMP280;30771;47.988;-4.186;2023-06-19T11:26:25;98007.50;;;25.52
45034;BMP280;30771;47.988;-4.186;2023-06-19T11:28:50;98000.19;;;25.49
45034;BMP280;30771;47.988;-4.186;2023-06-19T11:31:15;98056.81;;;25.53
45034;BMP280;30771;47.988;-4.186;2023-06-19T11:33:41;98108.06;;;25.56
45034;BMP280;30771;47.988;-4.186;2023-06-19T11:36:06;98161.38;;;25.66
45034;BMP280;30771;47.988;-4.186;2023-06-19T11:38:31;98225.91;;;25.82
45034;BMP280;30771;47.988;-4.186;2023-06-19T11:40:57;98283.38;;;25.86
45034;BMP280;30771;47.988;-4.186;2023-06-19T11:43:35;98289.66;;;25.93
45034;BMP280;30771;47.988;-4.186;2023-06-19T11:46:04;98271.81;;;26.11
45034;BMP280;30771;47.988;-4.186;2023-06-19T11:48:30;98306.69;;;26.23
45034;BMP280;30771;47.988;-4.186;2023-06-19T11:50:55;98343.06;;;26.33
45034;BMP280;30771;47.988;-4.186;2023-06-19T11:53:21;98398.00;;;26.44
45034;BMP280;30771;47.988;-4.186;2023-06-19T11:55:47;98379.72;;;26.60
45034;BMP280;30771;47.988;-4.186;2023-06-19T11:58:12;98373.66;;;26.70
45034;BMP280;30771;47.988;-4.186;2023-06-19T12:00:38;98441.75;;;26.83
45034;BMP280;30771;47.988;-4.186;2023-06-19T12:03:04;98496.25;;;26.88
45034;BMP280;30771;47.988;-4.186;2023-06-19T12:05:29;98528.06;;;26.98
45034;BMP280;30771;47.988;-4.186;2023-06-19T12:07:55;98550.22;;;27.11
45034;BMP280;30771;47.988;-4.186;2023-06-19T12:10:21;98603.81;;;27.31
45034;BMP280;30771;47.988;-4.186;2023-06-19T12:12:46;98658.97;;;27.53
45034;BMP280;30771;47.988;-4.186;2023-06-19T12:15:12;98746.38;;;27.60
45034;BMP280;30771;47.988;-4.186;2023-06-19T12:17:37;98780.00;;;27.82
45034;BMP280;30771;47.988;-4.186;2023-06-19T12:20:02;98828.59;;;28.01
45034;BMP280;30771;47.988;-4.186;2023-06-19T12:22:28;98875.81;;;28.03
45034;BMP280;30771;47.988;-4.186;2023-06-19T12:24:53;98920.44;;;27.90
45034;BMP280;30771;47.988;-4.186;2023-06-19T12:27:18;98969.66;;;27.77
45034;BMP280;30771;47.988;-4.186;2023-06-19T12:29:44;99005.97;;;27.76
45034;BMP280;30771;47.988;-4.186;2023-06-19T12:32:09;99025.28;;;27.74
45034;BMP280;30771;47.988;-4.186;2023-06-19T12:34:34;99074.94;;;27.66
45034;BMP280;30771;47.988;-4.186;2023-06-19T12:36:59;99087.03;;;27.72
45034;BMP280;30771;47.988;-4.186;2023-06-19T12:39:25;99091.06;;;27.78
45034;BMP280;30771;47.988;-4.186;2023-06-19T12:41:50;99114.88;;;27.73
45034;BMP280;30771;47.988;-4.186;2023-06-19T12:44:16;99141.06;;;27.50
45034;BMP280;30771;47.988;-4.186;2023-06-19T12:46:41;99168.44;;;27.17
45034;BMP280;30771;47.988;-4.186;2023-06-19T12:49:06;99165.13;;;26.93
45034;BMP280;30771;47.988;-4.186;2023-06-19T12:51:33;99130.47;;;26.79
45034;BMP280;30771;47.988;-4.186;2023-06-19T12:53:58;99109.16;;;26.77
45034;BMP280;30771;47.988;-4.186;2023-06-19T12:56:24;99095.50;;;26.86
45034;BMP280;30771;47.988;-4.186;2023-06-19T12:58:49;99080.69;;;26.96
45034;BMP280;30771;47.988;-4.186;2023-06-19T13:01:14;99057.84;;;27.09
45034;BMP280;30771;47.988;-4.186;2023-06-19T13:03:40;99047.63;;;27.18
45034;BMP280;30771;47.988;-4.186;2023-06-19T13:06:05;99030.47;;;27.29
45034;BMP280;30771;47.988;-4.186;2023-06-19T13:08:30;99038.91;;;27.43
45034;BMP280;30771;47.988;-4.186;2023-06-19T13:10:56;99052.56;;;27.50
45034;BMP280;30771;47.988;-4.186;2023-06-19T13:13:21;99066.97;;;27.54
45034;BMP280;30771;47.988;-4.186;2023-06-19T13:15:46;99057.91;;;27.47
45034;BMP280;30771;47.988;-4.186;2023-06-19T13:18:11;99058.78;;;27.51
45034;BMP280;30771;47.988;-4.186;2023-06-19T13:20:37;99097.25;;;27.60
45034;BMP280;30771;47.988;-4.186;2023-06-19T13:23:03;99122.69;;;27.59
45034;BMP280;30771;47.988;-4.186;2023-06-19T13:25:28;99120.13;;;27.47
45034;BMP280;30771;47.988;-4.186;2023-06-19T13:27:53;99097.69;;;27.46
45034;BMP280;30771;47.988;-4.186;2023-06-19T13:30:19;99103.75;;;27.59
45034;BMP280;30771;47.988;-4.186;2023-06-19T13:32:44;99122.19;;;27.72
45034;BMP280;30771;47.988;-4.186;2023-06-19T13:35:10;99151.78;;;27.81
45034;BMP280;30771;47.988;-4.186;2023-06-19T13:37:36;99154.09;;;27.82
45034;BMP280;30771;47.988;-4.186;2023-06-19T13:40:02;99184.47;;;27.91
45034;BMP280;30771;47.988;-4.186;2023-06-19T13:42:29;99215.53;;;27.97
45034;BMP280;30771;47.988;-4.186;2023-06-19T13:44:54;99228.63;;;27.95
45034;BMP280;30771;47.988;-4.186;2023-06-19T13:47:20;99225.41;;;27.90
45034;BMP280;30771;47.988;-4.186;2023-06-19T13:49:45;99222.22;;;27.84
45034;BMP280;30771;47.988;-4.186;2023-06-19T13:52:10;99215.19;;;27.64
45034;BMP280;30771;47.988;-4.186;2023-06-19T13:54:36;99250.44;;;27.52
45034;BMP280;30771;47.988;-4.186;2023-06-19T13:57:01;99246.22;;;27.39
45034;BMP280;30771;47.988;-4.186;2023-06-19T13:59:26;99229.16;;;27.35
45034;BMP280;30771;47.988;-4.186;2023-06-19T14:01:51;99236.31;;;27.28
45034;BMP280;30771;47.988;-4.186;2023-06-19T14:04:17;99254.31;;;27.24
45034;BMP280;30771;47.988;-4.186;2023-06-19T14:06:42;99251.31;;;27.25
45034;BMP280;30771;47.988;-4.186;2023-06-19T14:09:08;99239.09;;;27.31
45034;BMP280;30771;47.988;-4.186;2023-06-19T14:11:33;99233.50;;;27.40
45034;BMP280;30771;47.988;-4.186;2023-06-19T14:13:58;99224.50;;;27.51
45034;BMP280;30771;47.988;-4.186;2023-06-19T14:16:24;99238.25;;;27.77
45034;BMP280;30771;47.988;-4.186;2023-06-19T14:18:49;99271.78;;;27.88
45034;BMP280;30771;47.988;-4.186;2023-06-19T14:21:14;99304.84;;;27.97
45034;BMP280;30771;47.988;-4.186;2023-06-19T14:23:40;99328.66;;;28.07
45034;BMP280;30771;47.988;-4.186;2023-06-19T14:26:05;99352.00;;;27.96
45034;BMP280;30771;47.988;-4.186;2023-06-19T14:28:30;99359.56;;;27.91
45034;BMP280;30771;47.988;-4.186;2023-06-19T14:30:55;99371.91;;;27.88
45034;BMP280;30771;47.988;-4.186;2023-06-19T14:33:21;99379.66;;;27.90
45034;BMP280;30771;47.988;-4.186;2023-06-19T14:35:46;99391.13;;;27.99
45034;BMP280;30771;47.988;-4.186;2023-06-19T14:38:15;99395.13;;;28.05
45034;BMP280;30771;47.988;-4.186;2023-06-19T14:40:41;99405.78;;;28.13
45034;BMP280;30771;47.988;-4.186;2023-06-19T14:43:06;99412.66;;;27.95
45034;BMP280;30771;47.988;-4.186;2023-06-19T14:45:32;99413.09;;;27.82
45034;BMP280;30771;47.988;-4.186;2023-06-19T14:47:57;99405.75;;;27.67
45034;BMP280;30771;47.988;-4.186;2023-06-19T14:50:22;99384.19;;;27.55
45034;BMP280;30771;47.988;-4.186;2023-06-19T14:52:47;99387.22;;;27.53
45034;BMP280;30771;47.988;-4.186;2023-06-19T14:55:13;99396.69;;;27.59
45034;BMP280;30771;47.988;-4.186;2023-06-19T14:57:38;99398.59;;;27.59
45034;BMP280;30771;47.988;-4.186;2023-06-19T15:00:03;99439.50;;;27.57
45034;BMP280;30771;47.988;-4.186;2023-06-19T15:02:29;99466.53;;;27.57
45034;BMP280;30771;47.988;-4.186;2023-06-19T15:04:54;99483.47;;;27.54
45034;BMP280;30771;47.988;-4.186;2023-06-19T15:07:19;99461.75;;;27.39
45034;BMP280;30771;47.988;-4.186;2023-06-19T15:09:45;99469.44;;;27.37
45034;BMP280;30771;47.988;-4.186;2023-06-19T15:12:10;99480.84;;;27.30
45034;BMP280;30771;47.988;-4.186;2023-06-19T15:14:35;99482.41;;;27.31
45034;BMP280;30771;47.988;-4.186;2023-06-19T15:17:01;99477.56;;;27.37
45034;BMP280;30771;47.988;-4.186;2023-06-19T15:19:26;99480.50;;;27.32
45034;BMP280;30771;47.988;-4.186;2023-06-19T15:21:51;99472.44;;;27.20
45034;BMP280;30771;47.988;-4.186;2023-06-19T15:24:16;99470.06;;;27.18
45034;BMP280;30771;47.988;-4.186;2023-06-19T15:26:42;99463.88;;;27.18
45034;BMP280;30771;47.988;-4.186;2023-06-19T15:29:07;99449.72;;;27.09
45034;BMP280;30771;47.988;-4.186;2023-06-19T15:31:32;99460.19;;;27.10
45034;BMP280;30771;47.988;-4.186;2023-06-19T15:33:58;99459.72;;;27.08
45034;BMP280;30771;47.988;-4.186;2023-06-19T15:36:23;99455.78;;;27.06
45034;BMP280;30771;47.988;-4.186;2023-06-19T15:38:48;99468.59;;;27.21
45034;BMP280;30771;47.988;-4.186;2023-06-19T15:41:14;99469.75;;;27.08
45034;BMP280;30771;47.988;-4.186;2023-06-19T15:43:39;99481.47;;;27.00
45034;BMP280;30771;47.988;-4.186;2023-06-19T15:46:04;99473.28;;;26.96
45034;BMP280;30771;47.988;-4.186;2023-06-19T15:48:30;99468.88;;;27.04
45034;BMP280;30771;47.988;-4.186;2023-06-19T15:50:55;99457.03;;;27.08
45034;BMP280;30771;47.988;-4.186;2023-06-19T15:53:20;99459.06;;;26.99
45034;BMP280;30771;47.988;-4.186;2023-06-19T15:55:46;99456.59;;;26.94
45034;BMP280;30771;47.988;-4.186;2023-06-19T15:58:11;99455.72;;;26.90
45034;BMP280;30771;47.988;-4.186;2023-06-19T16:00:37;99447.63;;;26.78
45034;BMP280;30771;47.988;-4.186;2023-06-19T16:03:02;99426.81;;;26.54
45034;BMP280;30771;47.988;-4.186;2023-06-19T16:05:30;99422.78;;;26.36
45034;BMP280;30771;47.988;-4.186;2023-06-19T16:07:55;99407.69;;;26.23
45034;BMP280;30771;47.988;-4.186;2023-06-19T16:10:21;99363.84;;;26.02
45034;BMP280;30771;47.988;-4.186;2023-06-19T16:12:46;99305.78;;;25.84
45034;BMP280;30771;47.988;-4.186;2023-06-19T16:15:12;99206.72;;;25.69
45034;BMP280;30771;47.988;-4.186;2023-06-19T16:17:37;99073.38;;;25.43
45034;BMP280;30771;47.988;-4.186;2023-06-19T16:20:02;98941.44;;;25.34
45034;BMP280;30771;47.988;-4.186;2023-06-19T16:22:28;98779.03;;;25.22
45034;BMP280;30771;47.988;-4.186;2023-06-19T16:24:53;98538.78;;;25.01
45034;BMP280;30771;47.988;-4.186;2023-06-19T16:27:18;98342.03;;;24.94
45034;BMP280;30771;47.988;-4.186;2023-06-19T16:29:44;98187.31;;;24.88
45034;BMP280;30771;47.988;-4.186;2023-06-19T16:32:09;98052.50;;;24.77
45034;BMP280;30771;47.988;-4.186;2023-06-19T16:34:34;97894.78;;;24.69
45034;BMP280;30771;47.988;-4.186;2023-06-19T16:37:00;97741.25;;;24.59
45034;BMP280;30771;47.988;-4.186;2023-06-19T16:39:25;97660.03;;;24.50
45034;BMP280;30771;47.988;-4.186;2023-06-19T16:41:51;97571.56;;;24.41
45034;BMP280;30771;47.988;-4.186;2023-06-19T16:44:16;97479.19;;;24.27
45034;BMP280;30771;47.988;-4.186;2023-06-19T16:46:41;97399.22;;;24.17
45034;BMP280;30771;47.988;-4.186;2023-06-19T16:49:06;97343.09;;;24.12
45034;BMP280;30771;47.988;-4.186;2023-06-19T16:51:32;97285.84;;;24.11
45034;BMP280;30771;47.988;-4.186;2023-06-19T16:53:57;97275.00;;;23.97
45034;BMP280;30771;47.988;-4.186;2023-06-19T16:56:22;97272.91;;;23.80
45034;BMP280;30771;47.988;-4.186;2023-06-19T16:58:48;97283.22;;;23.71
45034;BMP280;30771;47.988;-4.186;2023-06-19T17:01:13;97266.63;;;23.65
45034;BMP280;30771;47.988;-4.186;2023-06-19T17:03:39;97259.78;;;23.68
45034;BMP280;30771;47.988;-4.186;2023-06-19T17:06:04;97221.38;;;23.64
45034;BMP280;30771;47.988;-4.186;2023-06-19T17:08:30;97210.63;;;23.64
45034;BMP280;30771;47.988;-4.186;2023-06-19T17:10:55;97190.94;;;23.49
45034;BMP280;30771;47.988;-4.186;2023-06-19T17:13:20;97183.22;;;23.48
45034;BMP280;30771;47.988;-4.186;2023-06-19T17:15:46;97190.09;;;23.42
45034;BMP280;30771;47.988;-4.186;2023-06-19T17:18:11;97184.63;;;23.31
45034;BMP280;30771;47.988;-4.186;2023-06-19T17:20:37;97179.97;;;23.25
45034;BMP280;30771;47.988;-4.186;2023-06-19T17:23:02;97179.13;;;23.21
45034;BMP280;30771;47.988;-4.186;2023-06-19T17:25:28;97172.53;;;23.15
45034;BMP280;30771;47.988;-4.186;2023-06-19T17:27:54;97166.31;;;23.07
45034;BMP280;30771;47.988;-4.186;2023-06-19T17:30:19;97170.53;;;23.05
45034;BMP280;30771;47.988;-4.186;2023-06-19T17:32:45;97161.97;;;22.96
45034;BMP280;30771;47.988;-4.186;2023-06-19T17:35:10;97173.47;;;22.96
45034;BMP280;30771;47.988;-4.186;2023-06-19T17:37:36;97173.88;;;22.95
45034;BMP280;30771;47.988;-4.186;2023-06-19T17:40:03;97180.34;;;22.90
45034;BMP280;30771;47.988;-4.186;2023-06-19T17:42:28;97185.28;;;22.88
45034;BMP280;30771;47.988;-4.186;2023-06-19T17:44:53;97184.44;;;22.81
45034;BMP280;30771;47.988;-4.186;2023-06-19T17:47:19;97202.38;;;22.77
45034;BMP280;30771;47.988;-4.186;2023-06-19T17:49:44;97203.44;;;22.69
45034;BMP280;30771;47.988;-4.186;2023-06-19T17:52:10;97208.81;;;22.69
45034;BMP280;30771;47.988;-4.186;2023-06-19T17:54:35;97213.31;;;22.61
45034;BMP280;30771;47.988;-4.186;2023-06-19T17:57:00;97230.78;;;22.52
45034;BMP280;30771;47.988;-4.186;2023-06-19T17:59:26;97245.19;;;22.44
45034;BMP280;30771;47.988;-4.186;2023-06-19T18:01:51;97252.38;;;22.36
45034;BMP280;30771;47.988;-4.186;2023-06-19T18:04:16;97252.25;;;22.29
45034;BMP280;30771;47.988;-4.186;2023-06-19T18:06:42;97259.13;;;22.27
45034;BMP280;30771;47.988;-4.186;2023-06-19T18:09:07;97279.25;;;22.17
45034;BMP280;30771;47.988;-4.186;2023-06-19T18:11:33;97291.34;;;22.08
45034;BMP280;30771;47.988;-4.186;2023-06-19T18:13:58;97329.84;;;22.00
45034;BMP280;30771;47.988;-4.186;2023-06-19T18:16:23;97343.06;;;21.89
45034;BMP280;30771;47.988;-4.186;2023-06-19T18:18:49;97367.38;;;21.81
45034;BMP280;30771;47.988;-4.186;2023-06-19T18:21:14;97399.41;;;21.74
45034;BMP280;30771;47.988;-4.186;2023-06-19T18:23:40;97440.78;;;21.60
45034;BMP280;30771;47.988;-4.186;2023-06-19T18:26:05;97466.91;;;21.48
45034;BMP280;30771;47.988;-4.186;2023-06-19T18:28:30;97489.72;;;21.42
45034;BMP280;30771;47.988;-4.186;2023-06-19T18:30:55;97513.03;;;21.41
45034;BMP280;30771;47.988;-4.186;2023-06-19T18:33:21;97540.41;;;21.35
45034;BMP280;30771;47.988;-4.186;2023-06-19T18:35:46;97567.25;;;21.38
45034;BMP280;30771;47.988;-4.186;2023-06-19T18:38:11;97593.94;;;21.35
45034;BMP280;30771;47.988;-4.186;2023-06-19T18:40:36;97609.47;;;21.29
45034;BMP280;30771;47.988;-4.186;2023-06-19T18:43:02;97628.44;;;21.24
45034;BMP280;30771;47.988;-4.186;2023-06-19T18:45:27;97645.19;;;21.21
45034;BMP280;30771;47.988;-4.186;2023-06-19T18:47:52;97657.38;;;21.19
45034;BMP280;30771;47.988;-4.186;2023-06-19T18:50:18;97677.75;;;21.23
45034;BMP280;30771;47.988;-4.186;2023-06-19T18:52:46;97695.06;;;21.14
45034;BMP280;30771;47.988;-4.186;2023-06-19T18:55:11;97704.34;;;21.04
45034;BMP280;30771;47.988;-4.186;2023-06-19T18:57:37;97717.06;;;21.07
45034;BMP280;30771;47.988;-4.186;2023-06-19T19:00:02;97744.56;;;21.08
45034;BMP280;30771;47.988;-4.186;2023-06-19T19:02:28;97749.81;;;21.04
45034;BMP280;30771;47.988;-4.186;2023-06-19T19:04:53;97748.41;;;20.95
45034;BMP280;30771;47.988;-4.186;2023-06-19T19:07:18;97778.25;;;20.97
45034;BMP280;30771;47.988;-4.186;2023-06-19T19:09:43;97798.34;;;20.91
45034;BMP280;30771;47.988;-4.186;2023-06-19T19:12:09;97800.56;;;20.89
45034;BMP280;30771;47.988;-4.186;2023-06-19T19:14:35;97798.25;;;20.87
45034;BMP280;30771;47.988;-4.186;2023-06-19T19:17:00;97797.81;;;20.85
45034;BMP280;30771;47.988;-4.186;2023-06-19T19:19:26;97798.91;;;20.84
45034;BMP280;30771;47.988;-4.186;2023-06-19T19:21:51;97795.13;;;20.85
45034;BMP280;30771;47.988;-4.186;2023-06-19T19:24:16;97794.81;;;20.75
45034;BMP280;30771;47.988;-4.186;2023-06-19T19:26:42;97799.78;;;20.76
45034;BMP280;30771;47.988;-4.186;2023-06-19T19:29:07;97804.84;;;20.78
45034;BMP280;30771;47.988;-4.186;2023-06-19T19:31:36;97796.34;;;20.76
45034;BMP280;30771;47.988;-4.186;2023-06-19T19:34:01;97786.63;;;20.71
45034;BMP280;30771;47.988;-4.186;2023-06-19T19:36:26;97775.44;;;20.66
45034;BMP280;30771;47.988;-4.186;2023-06-19T19:38:52;97784.75;;;20.72
45034;BMP280;30771;47.988;-4.186;2023-06-19T19:41:17;97796.34;;;20.64
45034;BMP280;30771;47.988;-4.186;2023-06-19T19:43:42;97807.81;;;20.52
45034;BMP280;30771;47.988;-4.186;2023-06-19T19:46:08;97811.94;;;20.50
45034;BMP280;30771;47.988;-4.186;2023-06-19T19:48:33;97819.41;;;20.44
45034;BMP280;30771;47.988;-4.186;2023-06-19T19:50:58;97835.00;;;20.42
45034;BMP280;30771;47.988;-4.186;2023-06-19T19:53:24;97858.81;;;20.35